sensor_id;sensor_type;location;lat;lon;timestamp;P1;durP1;ratioP1;P2;durP2;ratioP2
62707;SDS011;48769;51.624;5.886;2022-07-03T00:00:08;6.40;;;4.22;;
62707;SDS011;48769;51.624;5.886;2022-07-03T00:02:34;4.70;;;3.75;;
62707;SDS011;48769;51.624;5.886;2022-07-03T00:04:59;6.00;;;4.30;;
62707;SDS011;48769;51.624;5.886;2022-07-03T00:07:24;5.13;;;4.55;;
62707;SDS011;48769;51.624;5.886;2022-07-03T00:09:49;5.35;;;3.97;;
62707;SDS011;48769;51.624;5.886;2022-07-03T00:12:15;5.80;;;4.20;;
62707;SDS011;48769;51.624;5.886;2022-07-03T00:14:40;5.32;;;4.53;;
62707;SDS011;48769;51.624;5.886;2022-07-03T00:17:06;6.55;;;4.57;;
62707;SDS011;48769;51.624;5.886;2022-07-03T00:19:31;4.70;;;4.30;;
62707;SDS011;48769;51.624;5.886;2022-07-03T00:21:56;5.85;;;4.65;;
62707;SDS011;48769;51.624;5.886;2022-07-03T00:26:58;10.48;;;4.88;;
62707;SDS011;48769;51.624;5.886;2022-07-03T00:29:27;6.32;;;4.75;;
62707;SDS011;48769;51.624;5.886;2022-07-03T00:31:56;6.15;;;4.43;;
62707;SDS011;48769;51.624;5.886;2022-07-03T00:34:23;5.97;;;4.55;;
62707;SDS011;48769;51.624;5.886;2022-07-03T00:36:50;6.95;;;4.90;;
62707;SDS011;48769;51.624;5.886;2022-07-03T00:39:17;5.22;;;4.03;;
62707;SDS011;48769;51.624;5.886;2022-07-03T00:41:43;6.10;;;5.50;;
62707;SDS011;48769;51.624;5.886;2022-07-03T00:44:10;6.15;;;5.50;;
62707;SDS011;48769;51.624;5.886;2022-07-03T00:46:37;9.05;;;6.18;;
62707;SDS011;48769;51.624;5.886;2022-07-03T00:49:06;7.50;;;5.53;;
62707;SDS011;48769;51.624;5.886;2022-07-03T00:51:34;5.45;;;4.90;;
62707;SDS011;48769;51.624;5.886;2022-07-03T00:54:02;5.63;;;5.15;;
62707;SDS011;48769;51.624;5.886;2022-07-03T00:56:29;9.38;;;6.13;;
62707;SDS011;48769;51.624;5.886;2022-07-03T00:58:56;6.40;;;5.80;;
62707;SDS011;48769;51.624;5.886;2022-07-03T01:01:29;7.03;;;5.73;;
62707;SDS011;48769;51.624;5.886;2022-07-03T01:04:10;6.90;;;6.05;;
62707;SDS011;48769;51.624;5.886;2022-07-03T01:12:13;7.25;;;5.90;;
62707;SDS011;48769;51.624;5.886;2022-07-03T01:15:33;7.47;;;6.78;;
62707;SDS011;48769;51.624;5.886;2022-07-03T01:17:48;7.68;;;6.15;;
62707;SDS011;48769;51.624;5.886;2022-07-03T01:20:27;7.72;;;7.03;;
62707;SDS011;48769;51.624;5.886;2022-07-03T01:22:57;7.43;;;6.72;;
62707;SDS011;48769;51.624;5.886;2022-07-03T01:25:25;7.65;;;6.97;;
62707;SDS011;48769;51.624;5.886;2022-07-03T01:30:35;11.68;;;7.53;;
62707;SDS011;48769;51.624;5.886;2022-07-03T01:33:11;6.88;;;6.28;;
62707;SDS011;48769;51.624;5.886;2022-07-03T01:35:41;8.50;;;7.25;;
62707;SDS011;48769;51.624;5.886;2022-07-03T01:38:13;7.72;;;7.03;;
62707;SDS011;48769;51.624;5.886;2022-07-03T01:40:39;8.45;;;6.32;;
62707;SDS011;48769;51.624;5.886;2022-07-03T01:43:09;8.32;;;7.13;;
62707;SDS011;48769;51.624;5.886;2022-07-03T01:45:38;7.40;;;6.80;;
62707;SDS011;48769;51.624;5.886;2022-07-03T01:48:10;8.90;;;7.20;;
62707;SDS011;48769;51.624;5.886;2022-07-03T01:50:37;11.10;;;6.95;;
62707;SDS011;48769;51.624;5.886;2022-07-03T01:53:05;9.45;;;7.22;;
62707;SDS011;48769;51.624;5.886;2022-07-03T01:55:32;9.73;;;7.38;;
62707;SDS011;48769;51.624;5.886;2022-07-03T01:57:59;8.52;;;7.03;;
62707;SDS011;48769;51.624;5.886;2022-07-03T02:00:25;7.95;;;7.07;;
62707;SDS011;48769;51.624;5.886;2022-07-03T02:02:59;10.23;;;7.50;;
62707;SDS011;48769;51.624;5.886;2022-07-03T02:16:21;10.75;;;8.55;;
62707;SDS011;48769;51.624;5.886;2022-07-03T02:19:00;10.90;;;8.95;;
62707;SDS011;48769;51.624;5.886;2022-07-03T02:21:29;10.07;;;9.00;;
62707;SDS011;48769;51.624;5.886;2022-07-03T02:26:32;10.13;;;9.07;;
62707;SDS011;48769;51.624;5.886;2022-07-03T02:29:01;12.73;;;10.25;;
62707;SDS011;48769;51.624;5.886;2022-07-03T02:31:31;10.18;;;9.13;;
62707;SDS011;48769;51.624;5.886;2022-07-03T02:34:02;10.20;;;9.25;;
62707;SDS011;48769;51.624;5.886;2022-07-03T02:36:31;11.05;;;9.95;;
62707;SDS011;48769;51.624;5.886;2022-07-03T02:38:58;12.25;;;10.02;;
62707;SDS011;48769;51.624;5.886;2022-07-03T02:41:46;12.07;;;9.55;;
62707;SDS011;48769;51.624;5.886;2022-07-03T02:44:25;10.63;;;9.68;;
62707;SDS011;48769;51.624;5.886;2022-07-03T02:47:14;13.98;;;10.27;;
62707;SDS011;48769;51.624;5.886;2022-07-03T02:50:05;12.40;;;10.30;;
62707;SDS011;48769;51.624;5.886;2022-07-03T03:00:59;12.60;;;11.27;;
62707;SDS011;48769;51.624;5.886;2022-07-03T03:03:32;11.90;;;10.70;;
62707;SDS011;48769;51.624;5.886;2022-07-03T03:06:02;13.10;;;11.73;;
62707;SDS011;48769;51.624;5.886;2022-07-03T03:08:42;14.38;;;11.40;;
62707;SDS011;48769;51.624;5.886;2022-07-03T03:11:54;13.55;;;11.52;;
62707;SDS011;48769;51.624;5.886;2022-07-03T03:14:12;15.43;;;11.82;;
62707;SDS011;48769;51.624;5.886;2022-07-03T03:16:46;13.57;;;11.70;;
62707;SDS011;48769;51.624;5.886;2022-07-03T03:19:12;13.48;;;11.20;;
62707;SDS011;48769;51.624;5.886;2022-07-03T03:21:42;13.55;;;11.23;;
62707;SDS011;48769;51.624;5.886;2022-07-03T03:24:20;14.95;;;11.95;;
62707;SDS011;48769;51.624;5.886;2022-07-03T03:26:47;14.10;;;12.07;;
62707;SDS011;48769;51.624;5.886;2022-07-03T03:29:12;17.10;;;12.07;;
62707;SDS011;48769;51.624;5.886;2022-07-03T03:31:38;17.63;;;12.18;;
62707;SDS011;48769;51.624;5.886;2022-07-03T03:34:03;13.38;;;12.05;;
62707;SDS011;48769;51.624;5.886;2022-07-03T03:36:29;12.57;;;11.38;;
62707;SDS011;48769;51.624;5.886;2022-07-03T03:38:54;13.30;;;11.38;;
62707;SDS011;48769;51.624;5.886;2022-07-03T03:41:20;14.57;;;11.95;;
62707;SDS011;48769;51.624;5.886;2022-07-03T03:43:45;15.25;;;13.25;;
62707;SDS011;48769;51.624;5.886;2022-07-03T03:46:11;14.25;;;12.85;;
62707;SDS011;48769;51.624;5.886;2022-07-03T03:48:37;14.25;;;12.38;;
62707;SDS011;48769;51.624;5.886;2022-07-03T03:51:02;14.32;;;12.93;;
62707;SDS011;48769;51.624;5.886;2022-07-03T03:53:29;15.13;;;13.70;;
62707;SDS011;48769;51.624;5.886;2022-07-03T03:58:32;16.33;;;13.27;;
62707;SDS011;48769;51.624;5.886;2022-07-03T04:00:59;14.35;;;12.95;;
62707;SDS011;48769;51.624;5.886;2022-07-03T04:03:26;28.40;;;14.10;;
62707;SDS011;48769;51.624;5.886;2022-07-03T04:05:52;19.33;;;13.20;;
62707;SDS011;48769;51.624;5.886;2022-07-03T04:08:18;19.25;;;14.88;;
62707;SDS011;48769;51.624;5.886;2022-07-03T04:10:45;17.70;;;14.35;;
62707;SDS011;48769;51.624;5.886;2022-07-03T04:13:11;14.15;;;12.85;;
62707;SDS011;48769;51.624;5.886;2022-07-03T04:15:36;18.40;;;14.00;;
62707;SDS011;48769;51.624;5.886;2022-07-03T04:18:02;18.10;;;14.40;;
62707;SDS011;48769;51.624;5.886;2022-07-03T04:20:28;15.98;;;14.38;;
62707;SDS011;48769;51.624;5.886;2022-07-03T04:22:53;18.52;;;14.90;;
62707;SDS011;48769;51.624;5.886;2022-07-03T04:25:18;20.80;;;14.48;;
62707;SDS011;48769;51.624;5.886;2022-07-03T04:27:44;15.18;;;13.55;;
62707;SDS011;48769;51.624;5.886;2022-07-03T04:30:09;16.40;;;14.70;;
62707;SDS011;48769;51.624;5.886;2022-07-03T04:32:36;17.38;;;14.48;;
62707;SDS011;48769;51.624;5.886;2022-07-03T04:35:02;15.77;;;13.90;;
62707;SDS011;48769;51.624;5.886;2022-07-03T04:37:28;17.85;;;14.05;;
62707;SDS011;48769;51.624;5.886;2022-07-03T04:39:53;17.00;;;15.18;;
62707;SDS011;48769;51.624;5.886;2022-07-03T04:42:18;16.13;;;14.38;;
62707;SDS011;48769;51.624;5.886;2022-07-03T04:44:44;16.20;;;14.50;;
62707;SDS011;48769;51.624;5.886;2022-07-03T04:47:09;16.88;;;15.02;;
62707;SDS011;48769;51.624;5.886;2022-07-03T04:49:34;17.17;;;15.50;;
62707;SDS011;48769;51.624;5.886;2022-07-03T04:51:59;16.58;;;13.68;;
62707;SDS011;48769;51.624;5.886;2022-07-03T04:54:25;16.13;;;14.63;;
62707;SDS011;48769;51.624;5.886;2022-07-03T04:56:50;16.98;;;14.73;;
62707;SDS011;48769;51.624;5.886;2022-07-03T04:59:15;19.13;;;14.98;;
62707;SDS011;48769;51.624;5.886;2022-07-03T05:01:41;17.15;;;15.35;;
62707;SDS011;48769;51.624;5.886;2022-07-03T05:04:06;19.70;;;16.05;;
62707;SDS011;48769;51.624;5.886;2022-07-03T05:06:31;18.40;;;15.13;;
62707;SDS011;48769;51.624;5.886;2022-07-03T05:08:57;16.60;;;15.00;;
62707;SDS011;48769;51.624;5.886;2022-07-03T05:11:22;17.42;;;15.70;;
62707;SDS011;48769;51.624;5.886;2022-07-03T05:13:47;17.45;;;15.75;;
62707;SDS011;48769;51.624;5.886;2022-07-03T05:16:13;19.20;;;15.00;;
62707;SDS011;48769;51.624;5.886;2022-07-03T05:18:38;17.75;;;15.82;;
62707;SDS011;48769;51.624;5.886;2022-07-03T05:21:03;17.25;;;14.50;;
62707;SDS011;48769;51.624;5.886;2022-07-03T05:23:29;15.75;;;13.82;;
62707;SDS011;48769;51.624;5.886;2022-07-03T05:25:54;15.48;;;13.30;;
62707;SDS011;48769;51.624;5.886;2022-07-03T05:28:20;16.33;;;13.40;;
62707;SDS011;48769;51.624;5.886;2022-07-03T05:30:45;14.35;;;12.63;;
62707;SDS011;48769;51.624;5.886;2022-07-03T05:33:11;16.30;;;11.35;;
62707;SDS011;48769;51.624;5.886;2022-07-03T05:35:36;11.32;;;9.27;;
62707;SDS011;48769;51.624;5.886;2022-07-03T05:38:01;12.00;;;10.68;;
62707;SDS011;48769;51.624;5.886;2022-07-03T05:40:27;14.25;;;9.07;;
62707;SDS011;48769;51.624;5.886;2022-07-03T05:42:52;10.65;;;8.40;;
62707;SDS011;48769;51.624;5.886;2022-07-03T05:45:18;9.75;;;8.75;;
62707;SDS011;48769;51.624;5.886;2022-07-03T05:47:44;10.65;;;7.50;;
62707;SDS011;48769;51.624;5.886;2022-07-03T05:50:10;6.70;;;5.95;;
62707;SDS011;48769;51.624;5.886;2022-07-03T05:52:35;11.10;;;6.57;;
62707;SDS011;48769;51.624;5.886;2022-07-03T05:55:00;9.52;;;5.43;;
62707;SDS011;48769;51.624;5.886;2022-07-03T05:57:26;9.05;;;5.53;;
62707;SDS011;48769;51.624;5.886;2022-07-03T05:59:51;7.45;;;5.32;;
62707;SDS011;48769;51.624;5.886;2022-07-03T06:02:16;7.30;;;4.97;;
62707;SDS011;48769;51.624;5.886;2022-07-03T06:04:42;9.85;;;5.55;;
62707;SDS011;48769;51.624;5.886;2022-07-03T06:07:07;10.88;;;5.57;;
62707;SDS011;48769;51.624;5.886;2022-07-03T06:09:33;9.35;;;5.45;;
62707;SDS011;48769;51.624;5.886;2022-07-03T06:11:58;6.50;;;4.80;;
62707;SDS011;48769;51.624;5.886;2022-07-03T06:14:23;9.57;;;5.10;;
62707;SDS011;48769;51.624;5.886;2022-07-03T06:16:49;5.93;;;5.30;;
62707;SDS011;48769;51.624;5.886;2022-07-03T06:19:14;8.43;;;5.10;;
62707;SDS011;48769;51.624;5.886;2022-07-03T06:21:39;9.65;;;5.82;;
62707;SDS011;48769;51.624;5.886;2022-07-03T06:24:05;7.60;;;5.65;;
62707;SDS011;48769;51.624;5.886;2022-07-03T06:26:31;8.13;;;5.25;;
62707;SDS011;48769;51.624;5.886;2022-07-03T06:28:56;9.60;;;5.63;;
62707;SDS011;48769;51.624;5.886;2022-07-03T06:31:22;8.65;;;6.00;;
62707;SDS011;48769;51.624;5.886;2022-07-03T06:33:47;8.38;;;5.13;;
62707;SDS011;48769;51.624;5.886;2022-07-03T06:36:12;8.80;;;5.30;;
62707;SDS011;48769;51.624;5.886;2022-07-03T06:38:38;6.70;;;5.38;;
62707;SDS011;48769;51.624;5.886;2022-07-03T06:41:03;9.07;;;5.32;;
62707;SDS011;48769;51.624;5.886;2022-07-03T06:43:28;9.57;;;5.30;;
62707;SDS011;48769;51.624;5.886;2022-07-03T06:45:54;7.45;;;4.82;;
62707;SDS011;48769;51.624;5.886;2022-07-03T06:48:19;7.05;;;4.68;;
62707;SDS011;48769;51.624;5.886;2022-07-03T06:50:47;8.43;;;3.95;;
62707;SDS011;48769;51.624;5.886;2022-07-03T06:53:13;6.68;;;3.92;;
62707;SDS011;48769;51.624;5.886;2022-07-03T06:55:38;6.88;;;4.20;;
62707;SDS011;48769;51.624;5.886;2022-07-03T06:58:04;9.60;;;4.20;;
62707;SDS011;48769;51.624;5.886;2022-07-03T07:00:29;6.53;;;3.70;;
62707;SDS011;48769;51.624;5.886;2022-07-03T07:02:55;6.35;;;4.07;;
62707;SDS011;48769;51.624;5.886;2022-07-03T07:05:20;8.63;;;3.80;;
62707;SDS011;48769;51.624;5.886;2022-07-03T07:07:46;6.18;;;3.65;;
62707;SDS011;48769;51.624;5.886;2022-07-03T07:10:11;8.23;;;3.85;;
62707;SDS011;48769;51.624;5.886;2022-07-03T07:12:36;7.22;;;4.97;;
62707;SDS011;48769;51.624;5.886;2022-07-03T07:15:02;5.85;;;3.92;;
62707;SDS011;48769;51.624;5.886;2022-07-03T07:17:27;7.40;;;4.10;;
62707;SDS011;48769;51.624;5.886;2022-07-03T07:19:54;7.90;;;4.10;;
62707;SDS011;48769;51.624;5.886;2022-07-03T07:22:20;5.57;;;3.90;;
62707;SDS011;48769;51.624;5.886;2022-07-03T07:24:46;9.27;;;4.05;;
62707;SDS011;48769;51.624;5.886;2022-07-03T07:27:11;7.35;;;3.67;;
62707;SDS011;48769;51.624;5.886;2022-07-03T07:29:36;5.13;;;3.22;;
62707;SDS011;48769;51.624;5.886;2022-07-03T07:32:02;7.88;;;3.97;;
62707;SDS011;48769;51.624;5.886;2022-07-03T07:34:28;6.22;;;3.38;;
62707;SDS011;48769;51.624;5.886;2022-07-03T07:36:53;7.05;;;3.70;;
62707;SDS011;48769;51.624;5.886;2022-07-03T07:39:18;9.75;;;3.80;;
62707;SDS011;48769;51.624;5.886;2022-07-03T07:41:43;7.63;;;3.17;;
62707;SDS011;48769;51.624;5.886;2022-07-03T07:44:09;5.22;;;2.85;;
62707;SDS011;48769;51.624;5.886;2022-07-03T07:46:34;5.55;;;3.20;;
62707;SDS011;48769;51.624;5.886;2022-07-03T07:49:00;8.18;;;3.67;;
62707;SDS011;48769;51.624;5.886;2022-07-03T07:51:25;6.90;;;3.35;;
62707;SDS011;48769;51.624;5.886;2022-07-03T07:53:51;8.10;;;3.28;;
62707;SDS011;48769;51.624;5.886;2022-07-03T07:56:17;7.55;;;2.88;;
62707;SDS011;48769;51.624;5.886;2022-07-03T07:58:42;4.13;;;3.05;;
62707;SDS011;48769;51.624;5.886;2022-07-03T08:01:08;5.00;;;2.95;;
62707;SDS011;48769;51.624;5.886;2022-07-03T08:03:52;5.57;;;2.30;;
62707;SDS011;48769;51.624;5.886;2022-07-03T08:06:36;5.78;;;2.40;;
62707;SDS011;48769;51.624;5.886;2022-07-03T08:09:01;8.75;;;3.42;;
62707;SDS011;48769;51.624;5.886;2022-07-03T08:11:27;4.93;;;2.42;;
62707;SDS011;48769;51.624;5.886;2022-07-03T08:13:52;5.93;;;2.72;;
62707;SDS011;48769;51.624;5.886;2022-07-03T08:16:18;4.03;;;2.80;;
62707;SDS011;48769;51.624;5.886;2022-07-03T08:18:43;6.32;;;2.92;;
62707;SDS011;48769;51.624;5.886;2022-07-03T08:21:08;4.97;;;2.75;;
62707;SDS011;48769;51.624;5.886;2022-07-03T08:23:34;5.97;;;3.10;;
62707;SDS011;48769;51.624;5.886;2022-07-03T08:25:59;4.13;;;2.65;;
62707;SDS011;48769;51.624;5.886;2022-07-03T08:28:25;8.30;;;3.10;;
62707;SDS011;48769;51.624;5.886;2022-07-03T08:30:54;5.55;;;2.40;;
62707;SDS011;48769;51.624;5.886;2022-07-03T08:33:19;3.90;;;2.50;;
62707;SDS011;48769;51.624;5.886;2022-07-03T08:35:45;3.20;;;2.50;;
62707;SDS011;48769;51.624;5.886;2022-07-03T08:38:10;4.45;;;2.47;;
62707;SDS011;48769;51.624;5.886;2022-07-03T08:40:36;4.07;;;2.00;;
62707;SDS011;48769;51.624;5.886;2022-07-03T08:43:02;3.72;;;2.03;;
62707;SDS011;48769;51.624;5.886;2022-07-03T08:45:28;2.90;;;2.47;;
62707;SDS011;48769;51.624;5.886;2022-07-03T08:47:55;3.67;;;1.98;;
62707;SDS011;48769;51.624;5.886;2022-07-03T08:50:24;4.38;;;2.42;;
62707;SDS011;48769;51.624;5.886;2022-07-03T08:52:50;2.38;;;1.88;;
62707;SDS011;48769;51.624;5.886;2022-07-03T08:55:16;3.47;;;2.40;;
62707;SDS011;48769;51.624;5.886;2022-07-03T08:57:43;4.60;;;2.45;;
62707;SDS011;48769;51.624;5.886;2022-07-03T09:00:10;3.75;;;2.30;;
62707;SDS011;48769;51.624;5.886;2022-07-03T09:02:42;5.72;;;3.20;;
62707;SDS011;48769;51.624;5.886;2022-07-03T09:05:09;4.82;;;2.05;;
62707;SDS011;48769;51.624;5.886;2022-07-03T09:07:36;5.90;;;1.95;;
62707;SDS011;48769;51.624;5.886;2022-07-03T09:10:03;4.25;;;2.25;;
62707;SDS011;48769;51.624;5.886;2022-07-03T09:12:30;4.35;;;1.83;;
62707;SDS011;48769;51.624;5.886;2022-07-03T09:14:56;4.28;;;1.90;;
62707;SDS011;48769;51.624;5.886;2022-07-03T09:17:23;2.45;;;1.67;;
62707;SDS011;48769;51.624;5.886;2022-07-03T09:19:48;3.90;;;1.83;;
62707;SDS011;48769;51.624;5.886;2022-07-03T09:22:21;5.57;;;1.88;;
62707;SDS011;48769;51.624;5.886;2022-07-03T09:24:48;5.05;;;2.03;;
62707;SDS011;48769;51.624;5.886;2022-07-03T09:27:19;4.70;;;2.17;;
62707;SDS011;48769;51.624;5.886;2022-07-03T09:29:56;7.07;;;2.90;;
62707;SDS011;48769;51.624;5.886;2022-07-03T09:32:22;6.65;;;2.78;;
62707;SDS011;48769;51.624;5.886;2022-07-03T09:34:48;5.28;;;2.00;;
62707;SDS011;48769;51.624;5.886;2022-07-03T09:37:14;7.95;;;2.40;;
62707;SDS011;48769;51.624;5.886;2022-07-03T09:39:54;5.43;;;3.00;;
62707;SDS011;48769;51.624;5.886;2022-07-03T09:42:21;6.93;;;2.70;;
62707;SDS011;48769;51.624;5.886;2022-07-03T09:44:46;3.78;;;2.85;;
62707;SDS011;48769;51.624;5.886;2022-07-03T09:49:57;5.35;;;2.55;;
62707;SDS011;48769;51.624;5.886;2022-07-03T09:52:30;6.30;;;2.83;;
62707;SDS011;48769;51.624;5.886;2022-07-03T09:57:34;4.25;;;2.85;;
62707;SDS011;48769;51.624;5.886;2022-07-03T10:00:15;4.85;;;2.72;;
62707;SDS011;48769;51.624;5.886;2022-07-03T10:03:14;3.45;;;2.47;;
62707;SDS011;48769;51.624;5.886;2022-07-03T10:05:41;3.83;;;3.00;;
62707;SDS011;48769;51.624;5.886;2022-07-03T10:08:11;5.38;;;2.92;;
62707;SDS011;48769;51.624;5.886;2022-07-03T10:10:41;5.95;;;3.20;;
62707;SDS011;48769;51.624;5.886;2022-07-03T10:13:09;5.72;;;2.80;;
62707;SDS011;48769;51.624;5.886;2022-07-03T10:15:35;5.25;;;3.40;;
62707;SDS011;48769;51.624;5.886;2022-07-03T10:18:03;6.50;;;3.22;;
62707;SDS011;48769;51.624;5.886;2022-07-03T10:20:31;5.43;;;2.45;;
62707;SDS011;48769;51.624;5.886;2022-07-03T10:22:59;6.55;;;3.28;;
62707;SDS011;48769;51.624;5.886;2022-07-03T10:25:25;7.90;;;4.13;;
62707;SDS011;48769;51.624;5.886;2022-07-03T10:27:51;7.18;;;3.33;;
62707;SDS011;48769;51.624;5.886;2022-07-03T10:30:20;5.85;;;3.10;;
62707;SDS011;48769;51.624;5.886;2022-07-03T10:32:47;5.97;;;2.90;;
62707;SDS011;48769;51.624;5.886;2022-07-03T10:35:16;4.38;;;3.92;;
62707;SDS011;48769;51.624;5.886;2022-07-03T10:40:49;8.07;;;3.20;;
62707;SDS011;48769;51.624;5.886;2022-07-03T10:44:04;6.18;;;3.47;;
62707;SDS011;48769;51.624;5.886;2022-07-03T10:46:49;4.82;;;2.72;;
62707;SDS011;48769;51.624;5.886;2022-07-03T10:49:15;4.65;;;3.03;;
62707;SDS011;48769;51.624;5.886;2022-07-03T10:51:53;5.10;;;3.90;;
62707;SDS011;48769;51.624;5.886;2022-07-03T10:57:22;5.85;;;3.80;;
62707;SDS011;48769;51.624;5.886;2022-07-03T11:07:21;5.13;;;2.88;;
62707;SDS011;48769;51.624;5.886;2022-07-03T11:09:46;5.43;;;4.00;;
62707;SDS011;48769;51.624;5.886;2022-07-03T11:12:12;5.43;;;3.55;;
62707;SDS011;48769;51.624;5.886;2022-07-03T11:14:37;6.47;;;3.80;;
62707;SDS011;48769;51.624;5.886;2022-07-03T11:17:18;4.53;;;3.05;;
62707;SDS011;48769;51.624;5.886;2022-07-03T11:19:45;5.10;;;3.92;;
62707;SDS011;48769;51.624;5.886;2022-07-03T11:22:34;4.82;;;3.13;;
62707;SDS011;48769;51.624;5.886;2022-07-03T11:25:02;6.60;;;3.50;;
62707;SDS011;48769;51.624;5.886;2022-07-03T11:27:35;3.65;;;2.40;;
62707;SDS011;48769;51.624;5.886;2022-07-03T11:30:01;5.03;;;3.17;;
62707;SDS011;48769;51.624;5.886;2022-07-03T11:32:42;5.60;;;2.55;;
62707;SDS011;48769;51.624;5.886;2022-07-03T11:38:05;6.53;;;2.78;;
62707;SDS011;48769;51.624;5.886;2022-07-03T11:40:30;5.13;;;2.90;;
62707;SDS011;48769;51.624;5.886;2022-07-03T11:42:59;5.03;;;2.95;;
62707;SDS011;48769;51.624;5.886;2022-07-03T11:45:27;5.25;;;3.58;;
62707;SDS011;48769;51.624;5.886;2022-07-03T11:47:54;5.70;;;3.25;;
62707;SDS011;48769;51.624;5.886;2022-07-03T11:50:20;4.15;;;2.95;;
62707;SDS011;48769;51.624;5.886;2022-07-03T11:52:45;3.25;;;2.45;;
62707;SDS011;48769;51.624;5.886;2022-07-03T11:55:11;6.07;;;2.10;;
62707;SDS011;48769;51.624;5.886;2022-07-03T11:57:36;3.58;;;1.67;;
62707;SDS011;48769;51.624;5.886;2022-07-03T12:00:05;5.93;;;2.10;;
62707;SDS011;48769;51.624;5.886;2022-07-03T12:02:31;5.38;;;1.88;;
62707;SDS011;48769;51.624;5.886;2022-07-03T12:04:56;4.95;;;1.80;;
62707;SDS011;48769;51.624;5.886;2022-07-03T12:07:22;4.10;;;2.20;;
62707;SDS011;48769;51.624;5.886;2022-07-03T12:09:49;3.72;;;1.90;;
62707;SDS011;48769;51.624;5.886;2022-07-03T12:12:14;6.90;;;2.42;;
62707;SDS011;48769;51.624;5.886;2022-07-03T12:14:43;6.72;;;2.25;;
62707;SDS011;48769;51.624;5.886;2022-07-03T12:17:17;4.50;;;2.10;;
62707;SDS011;48769;51.624;5.886;2022-07-03T12:19:47;5.85;;;2.17;;
62707;SDS011;48769;51.624;5.886;2022-07-03T12:22:34;3.72;;;2.25;;
62707;SDS011;48769;51.624;5.886;2022-07-03T12:25:09;4.90;;;2.53;;
62707;SDS011;48769;51.624;5.886;2022-07-03T12:27:39;3.33;;;1.88;;
62707;SDS011;48769;51.624;5.886;2022-07-03T12:30:12;8.20;;;1.80;;
62707;SDS011;48769;51.624;5.886;2022-07-03T12:32:44;3.15;;;1.90;;
62707;SDS011;48769;51.624;5.886;2022-07-03T12:35:11;5.15;;;2.50;;
62707;SDS011;48769;51.624;5.886;2022-07-03T12:37:37;4.25;;;1.95;;
62707;SDS011;48769;51.624;5.886;2022-07-03T12:40:10;4.47;;;2.08;;
62707;SDS011;48769;51.624;5.886;2022-07-03T12:42:56;3.08;;;1.75;;
62707;SDS011;48769;51.624;5.886;2022-07-03T12:45:27;2.50;;;2.00;;
62707;SDS011;48769;51.624;5.886;2022-07-03T12:47:57;5.90;;;2.08;;
62707;SDS011;48769;51.624;5.886;2022-07-03T12:50:24;6.93;;;2.42;;
62707;SDS011;48769;51.624;5.886;2022-07-03T12:52:54;3.97;;;2.45;;
62707;SDS011;48769;51.624;5.886;2022-07-03T12:55:27;7.97;;;2.20;;
62707;SDS011;48769;51.624;5.886;2022-07-03T12:58:10;4.72;;;2.53;;
62707;SDS011;48769;51.624;5.886;2022-07-03T13:01:05;5.07;;;2.67;;
62707;SDS011;48769;51.624;5.886;2022-07-03T13:03:32;4.55;;;2.47;;
62707;SDS011;48769;51.624;5.886;2022-07-03T13:06:00;3.85;;;2.47;;
62707;SDS011;48769;51.624;5.886;2022-07-03T13:08:26;3.65;;;2.47;;
62707;SDS011;48769;51.624;5.886;2022-07-03T13:10:55;3.40;;;2.15;;
62707;SDS011;48769;51.624;5.886;2022-07-03T13:13:22;5.05;;;2.63;;
62707;SDS011;48769;51.624;5.886;2022-07-03T13:15:48;2.92;;;2.55;;
62707;SDS011;48769;51.624;5.886;2022-07-03T13:18:13;3.63;;;2.63;;
62707;SDS011;48769;51.624;5.886;2022-07-03T13:20:38;3.85;;;2.13;;
62707;SDS011;48769;51.624;5.886;2022-07-03T13:23:04;3.20;;;2.08;;
62707;SDS011;48769;51.624;5.886;2022-07-03T13:25:31;5.72;;;2.17;;
62707;SDS011;48769;51.624;5.886;2022-07-03T13:28:08;7.72;;;2.30;;
62707;SDS011;48769;51.624;5.886;2022-07-03T13:30:36;4.63;;;1.90;;
62707;SDS011;48769;51.624;5.886;2022-07-03T13:33:03;5.40;;;2.10;;
62707;SDS011;48769;51.624;5.886;2022-07-03T13:35:29;3.53;;;1.30;;
62707;SDS011;48769;51.624;5.886;2022-07-03T13:37:55;4.38;;;1.17;;
62707;SDS011;48769;51.624;5.886;2022-07-03T13:40:20;2.90;;;0.90;;
62707;SDS011;48769;51.624;5.886;2022-07-03T13:42:46;2.85;;;1.20;;
62707;SDS011;48769;51.624;5.886;2022-07-03T13:45:12;3.33;;;1.10;;
62707;SDS011;48769;51.624;5.886;2022-07-03T13:47:37;3.50;;;1.10;;
62707;SDS011;48769;51.624;5.886;2022-07-03T13:50:03;3.92;;;1.40;;
62707;SDS011;48769;51.624;5.886;2022-07-03T13:52:29;3.70;;;1.00;;
62707;SDS011;48769;51.624;5.886;2022-07-03T13:54:54;4.22;;;1.20;;
62707;SDS011;48769;51.624;5.886;2022-07-03T13:57:19;3.08;;;1.10;;
62707;SDS011;48769;51.624;5.886;2022-07-03T13:59:45;3.03;;;1.00;;
62707;SDS011;48769;51.624;5.886;2022-07-03T14:02:10;1.50;;;1.00;;
62707;SDS011;48769;51.624;5.886;2022-07-03T14:04:35;4.32;;;1.20;;
62707;SDS011;48769;51.624;5.886;2022-07-03T14:07:01;2.95;;;0.90;;
62707;SDS011;48769;51.624;5.886;2022-07-03T14:09:26;3.60;;;1.00;;
62707;SDS011;48769;51.624;5.886;2022-07-03T14:11:52;3.63;;;1.00;;
62707;SDS011;48769;51.624;5.886;2022-07-03T14:14:17;4.00;;;1.00;;
62707;SDS011;48769;51.624;5.886;2022-07-03T14:16:42;1.90;;;1.13;;
62707;SDS011;48769;51.624;5.886;2022-07-03T14:19:08;2.38;;;0.82;;
62707;SDS011;48769;51.624;5.886;2022-07-03T14:21:33;3.95;;;0.95;;
62707;SDS011;48769;51.624;5.886;2022-07-03T14:23:59;2.33;;;0.90;;
62707;SDS011;48769;51.624;5.886;2022-07-03T14:26:24;2.00;;;0.80;;
62707;SDS011;48769;51.624;5.886;2022-07-03T14:29:09;1.83;;;0.70;;
62707;SDS011;48769;51.624;5.886;2022-07-03T14:31:57;2.20;;;0.73;;
62707;SDS011;48769;51.624;5.886;2022-07-03T14:34:41;2.17;;;0.68;;
62707;SDS011;48769;51.624;5.886;2022-07-03T14:37:07;2.70;;;0.73;;
62707;SDS011;48769;51.624;5.886;2022-07-03T14:39:33;2.22;;;0.70;;
62707;SDS011;48769;51.624;5.886;2022-07-03T14:41:59;2.25;;;0.80;;
62707;SDS011;48769;51.624;5.886;2022-07-03T14:44:24;1.52;;;0.70;;
62707;SDS011;48769;51.624;5.886;2022-07-03T14:46:51;1.60;;;0.50;;
62707;SDS011;48769;51.624;5.886;2022-07-03T14:49:16;1.17;;;0.63;;
62707;SDS011;48769;51.624;5.886;2022-07-03T14:51:42;2.22;;;1.52;;
62707;SDS011;48769;51.624;5.886;2022-07-03T14:54:08;2.45;;;1.52;;
62707;SDS011;48769;51.624;5.886;2022-07-03T14:56:33;4.57;;;2.03;;
62707;SDS011;48769;51.624;5.886;2022-07-03T14:59:06;3.30;;;1.80;;
62707;SDS011;48769;51.624;5.886;2022-07-03T15:01:34;6.45;;;2.35;;
62707;SDS011;48769;51.624;5.886;2022-07-03T15:04:02;4.22;;;2.17;;
62707;SDS011;48769;51.624;5.886;2022-07-03T15:06:28;4.82;;;1.70;;
62707;SDS011;48769;51.624;5.886;2022-07-03T15:09:02;3.05;;;1.92;;
62707;SDS011;48769;51.624;5.886;2022-07-03T15:14:42;4.07;;;2.10;;
62707;SDS011;48769;51.624;5.886;2022-07-03T15:17:08;6.90;;;2.15;;
62707;SDS011;48769;51.624;5.886;2022-07-03T15:19:36;5.53;;;2.35;;
62707;SDS011;48769;51.624;5.886;2022-07-03T15:22:05;4.43;;;1.80;;
62707;SDS011;48769;51.624;5.886;2022-07-03T15:24:35;4.23;;;2.50;;
62707;SDS011;48769;51.624;5.886;2022-07-03T15:27:01;5.55;;;2.85;;
62707;SDS011;48769;51.624;5.886;2022-07-03T15:29:29;5.18;;;1.67;;
62707;SDS011;48769;51.624;5.886;2022-07-03T15:31:55;5.07;;;1.70;;
62707;SDS011;48769;51.624;5.886;2022-07-03T15:34:26;4.30;;;1.73;;
62707;SDS011;48769;51.624;5.886;2022-07-03T15:36:55;4.10;;;1.65;;
62707;SDS011;48769;51.624;5.886;2022-07-03T15:39:30;8.13;;;2.63;;
62707;SDS011;48769;51.624;5.886;2022-07-03T15:42:19;4.18;;;1.65;;
62707;SDS011;48769;51.624;5.886;2022-07-03T15:45:07;6.45;;;1.45;;
62707;SDS011;48769;51.624;5.886;2022-07-03T15:51:15;5.20;;;1.58;;
62707;SDS011;48769;51.624;5.886;2022-07-03T15:53:51;5.88;;;1.33;;